createdAt,value
2023-03-31T00:01:42.018Z,99.90
2023-03-31T00:04:09.718Z,99.90
2023-03-31T00:06:38.020Z,90.90
2023-03-31T00:09:05.323Z,84.20
2023-03-31T00:11:31.854Z,62.10
2023-03-31T00:13:58.374Z,47.00
2023-03-31T00:16:25.174Z,33.20
2023-03-31T00:18:51.840Z,1.00
2023-03-31T00:21:29.469Z,1.00
2023-03-31T00:23:57.588Z,1.00
2023-03-31T00:26:24.700Z,1.00
2023-03-31T00:28:51.575Z,1.00
2023-03-31T00:31:18.586Z,1.00
2023-03-31T00:33:45.300Z,1.00
2023-03-31T00:36:11.867Z,1.00
2023-03-31T00:38:38.401Z,1.00
2023-03-31T00:41:06.743Z,1.00
2023-03-31T00:43:35.681Z,1.00
2023-03-31T00:46:04.972Z,1.00
2023-03-31T00:48:32.305Z,1.00
2023-03-31T00:51:00.015Z,1.00
2023-03-31T00:53:28.907Z,1.00
2023-03-31T00:55:57.411Z,1.00
2023-03-31T00:58:28.183Z,1.00
2023-03-31T01:00:57.747Z,1.00
2023-03-31T01:03:25.191Z,1.00
2023-03-31T01:05:54.817Z,1.00
2023-03-31T01:08:24.342Z,1.00
2023-03-31T01:10:52.014Z,1.00
2023-03-31T01:13:18.945Z,1.00
2023-03-31T01:15:45.837Z,1.00
2023-03-31T01:18:13.651Z,1.00
2023-03-31T01:21:04.594Z,1.00
2023-03-31T01:23:49.899Z,1.00
2023-03-31T01:26:25.393Z,1.00
2023-03-31T01:29:01.409Z,1.00
2023-03-31T01:31:27.951Z,1.00
2023-03-31T01:34:13.470Z,1.00
2023-03-31T01:36:51.456Z,1.00
2023-03-31T01:39:36.996Z,1.00
2023-03-31T01:42:22.349Z,1.00
2023-03-31T01:45:08.087Z,1.00
2023-03-31T01:47:40.843Z,1.00
2023-03-31T01:50:22.141Z,1.00
2023-03-31T01:52:52.822Z,1.00
2023-03-31T01:55:24.366Z,1.00
2023-03-31T01:57:53.090Z,1.00
2023-03-31T02:00:22.131Z,1.00
2023-03-31T02:02:54.408Z,1.00
2023-03-31T02:05:23.459Z,1.00
2023-03-31T02:07:52.884Z,1.00
2023-03-31T02:10:20.584Z,1.00
2023-03-31T02:12:48.241Z,1.00
2023-03-31T02:15:18.226Z,1.00
2023-03-31T02:17:48.019Z,1.00
2023-03-31T02:20:16.220Z,1.00
2023-03-31T02:22:44.004Z,1.00
2023-03-31T02:25:12.119Z,1.00
2023-03-31T02:27:43.145Z,1.00
2023-03-31T02:30:11.699Z,99.90
2023-03-31T02:32:38.262Z,99.90
2023-03-31T02:35:06.151Z,1.00
2023-03-31T02:37:32.735Z,1.00
2023-03-31T02:40:01.321Z,1.00
2023-03-31T02:42:27.898Z,99.90
2023-03-31T02:44:54.490Z,99.90
2023-03-31T02:47:21.847Z,99.90
2023-03-31T02:49:50.842Z,1.00
2023-03-31T02:52:37.692Z,1.00
2023-03-31T02:55:24.491Z,99.90
2023-03-31T02:57:54.113Z,99.90
2023-03-31T03:00:41.331Z,99.90
2023-03-31T03:03:22.330Z,1.00
2023-03-31T03:05:54.889Z,1.00
2023-03-31T03:08:43.790Z,1.00
2023-03-31T03:11:26.292Z,1.00
2023-03-31T03:13:57.786Z,1.00
2023-03-31T03:16:27.256Z,99.90
2023-03-31T03:19:04.712Z,99.90
2023-03-31T03:21:31.498Z,1.00
2023-03-31T03:23:59.611Z,1.00
2023-03-31T03:26:28.102Z,99.90
2023-03-31T03:28:55.413Z,1.00
2023-03-31T03:31:23.903Z,1.00
2023-03-31T03:33:50.962Z,1.00
2023-03-31T03:36:17.824Z,1.00
2023-03-31T03:38:44.762Z,99.90
2023-03-31T03:41:11.359Z,1.00
2023-03-31T03:43:37.858Z,1.00
2023-03-31T03:46:05.205Z,1.00
2023-03-31T03:48:32.129Z,5.30
2023-03-31T03:51:01.924Z,94.90
2023-03-31T03:53:28.831Z,1.00
2023-03-31T03:55:55.621Z,1.00
2023-03-31T03:58:22.156Z,99.90
2023-03-31T04:00:48.871Z,99.90
2023-03-31T04:03:16.380Z,1.00
2023-03-31T04:05:43.045Z,1.00
2023-03-31T04:08:09.589Z,1.00
2023-03-31T04:10:36.474Z,99.90
2023-03-31T04:13:03.103Z,99.90
2023-03-31T04:15:29.723Z,99.90
2023-03-31T04:17:58.339Z,99.90
2023-03-31T04:20:27.754Z,99.90
2023-03-31T04:22:54.704Z,1.00
2023-03-31T04:25:22.598Z,99.90
2023-03-31T04:27:55.273Z,99.90
2023-03-31T04:30:25.115Z,99.90
2023-03-31T04:32:53.232Z,99.90
2023-03-31T04:35:23.545Z,99.90
2023-03-31T04:37:52.579Z,1.00
2023-03-31T04:40:19.548Z,1.00
2023-03-31T04:42:46.041Z,1.00
2023-03-31T04:45:12.843Z,23.70
2023-03-31T04:47:39.503Z,99.90
2023-03-31T04:50:06.518Z,99.90
2023-03-31T04:52:33.039Z,99.90
2023-03-31T04:54:59.569Z,1.00
2023-03-31T04:57:26.135Z,1.00
2023-03-31T04:59:52.735Z,27.40
2023-03-31T05:02:25.201Z,1.00
2023-03-31T05:04:52.317Z,1.00
2023-03-31T05:07:19.223Z,1.00
2023-03-31T05:09:45.778Z,15.30
2023-03-31T05:12:12.292Z,1.00
2023-03-31T05:14:38.803Z,1.00
2023-03-31T05:17:05.509Z,28.20
2023-03-31T05:19:32.041Z,90.80
2023-03-31T05:21:58.578Z,8.20
2023-03-31T05:24:25.211Z,1.00
2023-03-31T05:26:54.916Z,99.90
2023-03-31T05:29:21.931Z,1.00
2023-03-31T05:31:48.428Z,99.90
2023-03-31T05:34:15.386Z,1.00
2023-03-31T05:36:43.310Z,1.00
2023-03-31T05:39:10.138Z,99.90
2023-03-31T05:41:36.728Z,1.00
2023-03-31T05:44:03.249Z,1.00
2023-03-31T05:46:29.831Z,1.00
2023-03-31T05:48:56.578Z,1.00
2023-03-31T05:51:23.392Z,56.50
2023-03-31T05:53:50.527Z,1.00
2023-03-31T05:56:17.128Z,1.00
2023-03-31T05:58:43.645Z,1.00
2023-03-31T06:01:11.914Z,1.00
2023-03-31T06:03:41.927Z,1.00
2023-03-31T06:06:09.195Z,1.00
2023-03-31T06:08:36.076Z,1.00
2023-03-31T06:11:07.152Z,1.00
2023-03-31T06:13:37.269Z,1.00
2023-03-31T06:16:03.954Z,1.00
2023-03-31T06:18:31.613Z,1.00
2023-03-31T06:20:58.514Z,99.90
2023-03-31T06:23:25.183Z,99.90
2023-03-31T06:25:52.156Z,1.00
2023-03-31T06:28:19.766Z,1.00
2023-03-31T06:30:46.302Z,99.90
2023-03-31T06:33:13.552Z,99.90
2023-03-31T06:35:40.889Z,99.90
2023-03-31T06:38:07.688Z,99.90
2023-03-31T06:40:34.270Z,99.90
2023-03-31T06:43:00.785Z,99.90
2023-03-31T06:45:27.288Z,99.90
2023-03-31T06:47:53.940Z,99.90
2023-03-31T06:50:20.537Z,99.90
2023-03-31T06:52:47.095Z,99.90
2023-03-31T06:55:15.488Z,99.90
2023-03-31T06:57:42.329Z,99.90
2023-03-31T07:00:09.227Z,99.90
2023-03-31T07:02:36.881Z,99.90
2023-03-31T07:05:03.552Z,91.20
2023-03-31T07:07:33.029Z,43.20
2023-03-31T07:09:59.609Z,47.90
2023-03-31T07:12:26.094Z,43.70
2023-03-31T07:14:52.612Z,24.20
2023-03-31T07:17:19.182Z,20.40
2023-03-31T07:19:47.972Z,15.60
2023-03-31T07:22:15.248Z,12.80
2023-03-31T07:24:41.814Z,17.90
2023-03-31T07:27:08.513Z,18.50
2023-03-31T07:29:35.247Z,10.70
2023-03-31T07:32:01.879Z,8.30
2023-03-31T07:34:28.530Z,7.30
2023-03-31T07:36:55.614Z,5.00
2023-03-31T07:39:22.154Z,2.80
2023-03-31T07:41:48.652Z,1.00
2023-03-31T07:44:17.450Z,1.00
2023-03-31T07:46:44.073Z,1.10
2023-03-31T07:49:15.548Z,1.00
2023-03-31T07:51:42.073Z,21.00
2023-03-31T07:54:08.588Z,25.00
2023-03-31T07:56:35.329Z,28.60
2023-03-31T07:59:01.980Z,50.40
2023-03-31T08:01:29.402Z,45.80
2023-03-31T08:03:56.923Z,83.30
2023-03-31T08:06:24.219Z,99.40
2023-03-31T08:08:50.947Z,99.90
2023-03-31T08:11:17.812Z,99.90
2023-03-31T08:13:44.337Z,99.90
2023-03-31T08:16:11.161Z,99.10
2023-03-31T08:18:37.740Z,65.10
2023-03-31T08:21:04.636Z,63.40
2023-03-31T08:23:31.484Z,17.00
2023-03-31T08:26:27.758Z,16.00
2023-03-31T08:28:54.327Z,16.20
2023-03-31T08:31:21.504Z,17.80
2023-03-31T08:33:48.188Z,23.90
2023-03-31T08:36:14.838Z,19.40
2023-03-31T08:38:42.423Z,11.00
2023-03-31T08:41:24.856Z,7.80
2023-03-31T08:43:53.038Z,11.40
2023-03-31T08:46:20.513Z,11.70
2023-03-31T08:48:54.087Z,30.00
2023-03-31T08:51:32.852Z,45.70
2023-03-31T08:54:16.048Z,53.00
2023-03-31T08:56:44.158Z,39.30
2023-03-31T08:59:19.311Z,41.30
2023-03-31T09:01:56.155Z,21.40
2023-03-31T09:04:51.512Z,23.30
2023-03-31T09:07:18.029Z,12.00
2023-03-31T09:09:48.965Z,23.40
2023-03-31T09:12:21.026Z,8.50
2023-03-31T09:14:54.590Z,3.60
2023-03-31T09:17:25.201Z,3.70
2023-03-31T09:20:13.435Z,1.00
2023-03-31T09:22:42.670Z,1.20
2023-03-31T09:25:14.465Z,1.00
2023-03-31T09:27:42.416Z,27.10
2023-03-31T09:30:20.125Z,38.80
2023-03-31T09:32:48.136Z,61.40
2023-03-31T09:35:22.862Z,62.80
2023-03-31T09:37:49.602Z,81.00
2023-03-31T09:40:20.831Z,86.90
2023-03-31T09:42:48.058Z,94.30
2023-03-31T09:45:15.735Z,99.90
2023-03-31T09:47:43.746Z,98.70
2023-03-31T09:50:11.164Z,76.40
2023-03-31T09:52:42.666Z,86.10
2023-03-31T09:55:28.378Z,72.80
2023-03-31T09:58:06.400Z,61.70
2023-03-31T10:00:33.755Z,55.60
2023-03-31T10:03:07.539Z,43.50
2023-03-31T10:05:36.640Z,53.40
2023-03-31T10:08:14.246Z,54.20
2023-03-31T10:10:44.585Z,45.70
2023-03-31T10:13:14.025Z,53.10
2023-03-31T10:15:42.391Z,78.30
2023-03-31T10:18:14.074Z,80.30
2023-03-31T10:20:43.852Z,99.90
2023-03-31T10:23:17.788Z,99.90
2023-03-31T10:25:46.311Z,99.90
2023-03-31T10:28:15.887Z,98.90
2023-03-31T10:30:47.433Z,60.00
2023-03-31T10:33:22.803Z,89.40
2023-03-31T10:35:54.336Z,99.90
2023-03-31T10:38:29.183Z,99.90
2023-03-31T10:40:57.844Z,99.90
2023-03-31T10:43:35.486Z,99.90
2023-03-31T10:46:02.068Z,99.90
2023-03-31T10:48:32.444Z,99.90
2023-03-31T10:51:00.451Z,99.90
2023-03-31T10:53:26.980Z,99.90
2023-03-31T10:55:58.864Z,99.90
2023-03-31T10:58:37.520Z,99.90
2023-03-31T11:01:39.786Z,99.90
2023-03-31T11:04:30.405Z,99.90
2023-03-31T11:07:00.850Z,1.00
2023-03-31T11:09:33.531Z,1.00
2023-03-31T11:12:03.006Z,1.00
2023-03-31T11:14:52.440Z,99.90
2023-03-31T11:17:19.006Z,99.90
2023-03-31T11:19:53.557Z,1.00
2023-03-31T11:22:31.580Z,1.00
2023-03-31T11:25:06.704Z,99.90
2023-03-31T11:27:42.375Z,1.00
2023-03-31T11:30:13.611Z,1.00
2023-03-31T11:32:56.887Z,1.00
2023-03-31T11:35:23.720Z,64.70
2023-03-31T11:37:57.640Z,1.00
2023-03-31T11:40:43.097Z,1.00
2023-03-31T11:43:09.576Z,1.00
2023-03-31T11:45:39.356Z,1.00
2023-03-31T11:48:10.397Z,1.00
2023-03-31T11:50:39.864Z,99.90
2023-03-31T11:53:12.955Z,69.10
2023-03-31T11:55:40.054Z,99.90
2023-03-31T11:58:15.528Z,1.00
2023-03-31T12:00:48.196Z,99.90
2023-03-31T12:03:19.695Z,99.90
2023-03-31T12:05:48.617Z,32.60
2023-03-31T12:08:17.106Z,1.00
2023-03-31T12:10:46.786Z,1.00
2023-03-31T12:13:36.157Z,1.00
2023-03-31T12:16:03.105Z,1.00
2023-03-31T12:18:32.814Z,1.00
2023-03-31T12:21:01.714Z,1.00
2023-03-31T12:23:29.476Z,99.90
2023-03-31T12:26:08.196Z,99.90
2023-03-31T12:28:37.386Z,99.90
2023-03-31T12:31:06.011Z,99.90
2023-03-31T12:33:43.915Z,99.90
2023-03-31T12:36:23.568Z,99.90
2023-03-31T12:39:01.542Z,99.90
2023-03-31T12:41:46.756Z,99.90
2023-03-31T12:44:19.577Z,91.90
2023-03-31T12:46:52.327Z,47.50
2023-03-31T12:49:37.814Z,51.40
2023-03-31T12:52:06.577Z,33.60
2023-03-31T12:54:51.987Z,34.70
2023-03-31T12:57:25.649Z,39.30
2023-03-31T13:00:10.328Z,20.00
2023-03-31T13:02:40.762Z,13.80
2023-03-31T13:05:26.162Z,23.30
2023-03-31T13:07:52.864Z,1.00
2023-03-31T13:10:24.198Z,7.30
2023-03-31T13:12:56.700Z,10.60
2023-03-31T13:15:23.951Z,1.00
2023-03-31T13:17:56.441Z,1.70
2023-03-31T13:20:23.009Z,1.00
2023-03-31T13:22:59.158Z,1.00
2023-03-31T13:25:44.258Z,1.00
2023-03-31T13:28:14.004Z,1.00
2023-03-31T13:30:40.871Z,1.00
2023-03-31T13:33:17.792Z,1.00
2023-03-31T13:35:50.648Z,1.00
2023-03-31T13:38:25.631Z,1.00
2023-03-31T13:41:09.778Z,1.00
2023-03-31T13:43:55.227Z,1.00
2023-03-31T13:46:37.219Z,1.00
2023-03-31T13:49:22.562Z,1.00
2023-03-31T13:51:55.330Z,1.00
2023-03-31T13:54:32.396Z,1.00
2023-03-31T13:57:14.294Z,1.00
2023-03-31T13:59:50.256Z,1.00
2023-03-31T14:02:35.786Z,1.00
2023-03-31T14:05:09.034Z,1.00
2023-03-31T14:07:41.564Z,1.00
2023-03-31T14:10:21.862Z,1.00
2023-03-31T14:12:48.852Z,1.00
2023-03-31T14:15:20.425Z,1.00
2023-03-31T14:17:47.174Z,1.00
2023-03-31T14:20:20.534Z,1.00
2023-03-31T14:22:47.007Z,1.00
2023-03-31T14:25:18.945Z,1.00
2023-03-31T14:28:09.824Z,1.00
2023-03-31T14:30:42.990Z,1.00
2023-03-31T14:33:16.829Z,1.00
2023-03-31T14:35:50.276Z,1.00
2023-03-31T14:38:18.874Z,1.00
2023-03-31T14:40:47.957Z,1.00
2023-03-31T14:43:22.018Z,1.00
2023-03-31T14:45:57.033Z,1.00
2023-03-31T14:48:23.530Z,1.00
2023-03-31T14:50:51.782Z,1.00
2023-03-31T14:53:22.854Z,1.00
2023-03-31T14:55:58.679Z,2.00
2023-03-31T14:58:27.895Z,1.00
2023-03-31T15:00:56.103Z,1.00
2023-03-31T15:03:25.634Z,1.00
2023-03-31T15:05:56.775Z,1.00
2023-03-31T15:08:23.987Z,28.30
2023-03-31T15:10:54.089Z,1.00
2023-03-31T15:13:25.594Z,1.00
2023-03-31T15:15:52.081Z,1.00
2023-03-31T15:18:18.872Z,1.00
2023-03-31T15:20:45.921Z,1.00
2023-03-31T15:23:24.672Z,1.00
2023-03-31T15:25:54.085Z,1.00
2023-03-31T15:28:21.944Z,1.00
2023-03-31T15:30:52.227Z,1.00
2023-03-31T15:33:31.456Z,1.00
2023-03-31T15:35:58.179Z,1.00
2023-03-31T15:38:27.518Z,1.00
2023-03-31T15:40:56.145Z,1.00
2023-03-31T15:43:28.570Z,1.00
2023-03-31T15:45:59.200Z,1.00
2023-03-31T15:48:29.024Z,1.00
2023-03-31T15:51:02.699Z,7.80
2023-03-31T15:53:31.191Z,1.00
2023-03-31T15:55:59.889Z,1.00
2023-03-31T15:58:46.205Z,1.00
2023-03-31T16:01:15.920Z,1.00
2023-03-31T16:03:42.475Z,1.00
2023-03-31T16:06:14.892Z,1.00
2023-03-31T16:08:47.099Z,1.00
2023-03-31T16:11:15.530Z,1.00
2023-03-31T16:13:44.200Z,1.00
2023-03-31T16:16:13.373Z,1.00
2023-03-31T16:18:42.868Z,1.00
2023-03-31T16:21:09.834Z,1.00
2023-03-31T16:23:41.154Z,1.00
2023-03-31T16:26:08.128Z,1.00
2023-03-31T16:28:36.182Z,1.00
2023-03-31T16:31:03.548Z,1.00
2023-03-31T16:33:31.547Z,1.00
2023-03-31T16:35:58.899Z,1.00
2023-03-31T16:38:26.880Z,1.00
2023-03-31T16:40:54.647Z,1.00
2023-03-31T16:43:22.852Z,1.00
2023-03-31T16:45:51.202Z,1.00
2023-03-31T16:48:19.202Z,1.00
2023-03-31T16:50:47.023Z,1.00
2023-03-31T16:53:14.382Z,1.00
2023-03-31T16:55:41.452Z,1.00
2023-03-31T16:58:08.617Z,1.00
2023-03-31T17:00:36.200Z,1.00
2023-03-31T17:03:04.782Z,1.00
2023-03-31T17:05:33.950Z,1.00
2023-03-31T17:08:01.091Z,1.00
2023-03-31T17:10:27.937Z,1.00
2023-03-31T17:12:54.846Z,1.00
2023-03-31T17:15:21.442Z,1.00
2023-03-31T17:17:48.210Z,1.00
2023-03-31T17:20:15.017Z,1.00
2023-03-31T17:22:41.607Z,1.00
2023-03-31T17:25:08.428Z,1.00
2023-03-31T17:27:35.373Z,1.00
2023-03-31T17:32:29.881Z,1.00
2023-03-31T17:34:56.786Z,1.00
2023-03-31T17:37:23.355Z,1.00
2023-03-31T17:39:50.612Z,1.00
2023-03-31T17:42:19.110Z,5.30
2023-03-31T17:44:47.714Z,1.00
2023-03-31T17:47:15.559Z,1.00
2023-03-31T17:49:42.548Z,1.00
2023-03-31T17:52:09.165Z,1.00
2023-03-31T17:54:35.662Z,1.00
2023-03-31T17:57:04.574Z,1.00
2023-03-31T17:59:31.698Z,1.00
2023-03-31T18:01:58.415Z,1.00
2023-03-31T18:04:26.077Z,1.00
2023-03-31T18:06:52.874Z,1.00
2023-03-31T18:09:20.430Z,1.00
2023-03-31T18:11:49.395Z,1.00
2023-03-31T18:14:16.364Z,1.00
2023-03-31T18:16:42.956Z,1.00
2023-03-31T18:19:09.539Z,1.00
2023-03-31T18:21:36.973Z,1.00
2023-03-31T18:24:03.781Z,1.00
2023-03-31T18:26:30.590Z,1.00
2023-03-31T18:28:59.089Z,1.00
2023-03-31T18:31:27.224Z,1.00
2023-03-31T18:33:54.781Z,1.00
2023-03-31T18:36:22.556Z,1.00
2023-03-31T18:38:49.777Z,1.00
2023-03-31T18:41:17.789Z,1.00
2023-03-31T18:43:44.529Z,1.00
2023-03-31T18:46:11.773Z,1.00
2023-03-31T18:48:39.127Z,1.00
2023-03-31T18:51:05.832Z,1.00
2023-03-31T18:53:34.368Z,18.40
2023-03-31T18:56:01.703Z,1.90
2023-03-31T18:58:29.397Z,3.10
2023-03-31T19:00:56.633Z,3.00
2023-03-31T19:03:23.731Z,1.00
2023-03-31T19:05:50.702Z,13.30
2023-03-31T19:08:17.346Z,17.80
2023-03-31T19:10:43.995Z,4.20
2023-03-31T19:13:15.526Z,10.60
2023-03-31T19:15:42.231Z,27.70
2023-03-31T19:18:12.385Z,7.70
2023-03-31T19:20:38.960Z,10.70
2023-03-31T19:23:05.841Z,6.80
2023-03-31T19:25:32.521Z,1.00
2023-03-31T19:27:59.269Z,1.00
2023-03-31T19:30:26.020Z,4.20
2023-03-31T19:32:53.522Z,6.70
2023-03-31T19:35:20.457Z,16.80
2023-03-31T19:37:47.605Z,17.00
2023-03-31T19:40:14.634Z,26.80
2023-03-31T19:42:42.286Z,49.00
2023-03-31T19:45:09.058Z,43.40
2023-03-31T19:47:35.658Z,72.50
2023-03-31T19:50:02.352Z,85.10
2023-03-31T19:52:31.356Z,99.90
2023-03-31T19:54:57.873Z,99.90
2023-03-31T19:57:24.434Z,99.90
2023-03-31T19:59:51.214Z,99.90
2023-03-31T20:02:18.414Z,99.90
2023-03-31T20:04:45.507Z,99.90
2023-03-31T20:07:12.113Z,99.90
2023-03-31T20:09:38.608Z,99.90
2023-03-31T20:12:05.359Z,1.00
2023-03-31T20:14:32.025Z,1.00
2023-03-31T20:17:01.009Z,1.00
2023-03-31T20:19:27.672Z,1.00
2023-03-31T20:21:54.339Z,1.00
2023-03-31T20:24:21.468Z,1.00
2023-03-31T20:26:48.120Z,1.00
2023-03-31T20:29:14.657Z,1.00
2023-03-31T20:31:41.788Z,1.00
2023-03-31T20:34:12.411Z,99.90
2023-03-31T20:36:40.116Z,99.90
2023-03-31T20:39:07.624Z,99.90
2023-03-31T20:41:35.144Z,99.90
2023-03-31T20:44:01.798Z,99.90
2023-03-31T20:46:28.428Z,99.90
2023-03-31T20:48:56.562Z,99.90
2023-03-31T20:51:29.380Z,99.90
2023-03-31T20:53:57.380Z,99.90
2023-03-31T20:56:25.752Z,99.90
2023-03-31T20:58:54.581Z,99.90
2023-03-31T21:01:21.458Z,99.90
2023-03-31T21:03:48.834Z,99.90
2023-03-31T21:06:16.525Z,99.90
2023-03-31T21:08:45.443Z,99.90
2023-03-31T21:11:15.067Z,99.90
2023-03-31T21:13:41.625Z,99.90
2023-03-31T21:16:08.196Z,99.90
2023-03-31T21:18:37.207Z,99.90
2023-03-31T21:21:05.629Z,99.90
2023-03-31T21:23:32.506Z,99.90
2023-03-31T21:26:00.770Z,99.90
2023-03-31T21:28:28.953Z,99.90
2023-03-31T21:30:56.711Z,99.90
2023-03-31T21:33:24.213Z,99.90
2023-03-31T21:35:52.111Z,99.90
2023-03-31T21:38:20.041Z,99.90
2023-03-31T21:40:47.660Z,1.00
2023-03-31T21:43:14.664Z,1.00
2023-03-31T21:45:41.698Z,1.00
2023-03-31T21:48:09.180Z,1.00
2023-03-31T21:50:36.350Z,72.90
2023-03-31T21:53:06.902Z,92.90
2023-03-31T21:55:34.357Z,99.90
2023-03-31T21:58:01.329Z,99.90
2023-03-31T22:00:27.981Z,99.90
2023-03-31T22:03:06.252Z,99.90
2023-03-31T22:05:41.207Z,99.90
2023-03-31T22:08:07.986Z,99.90
2023-03-31T22:10:34.807Z,99.90
2023-03-31T22:13:01.426Z,1.00
2023-03-31T22:15:28.045Z,1.00
2023-03-31T22:17:54.801Z,1.00
2023-03-31T22:20:21.340Z,1.00
2023-03-31T22:22:47.952Z,99.90
2023-03-31T22:25:14.645Z,99.90
2023-03-31T22:27:41.548Z,99.90
2023-03-31T22:30:08.483Z,99.90
2023-03-31T22:32:34.997Z,1.00
2023-03-31T22:35:01.546Z,1.00
2023-03-31T22:37:28.180Z,1.00
2023-03-31T22:39:54.718Z,1.00
2023-03-31T22:42:21.597Z,1.00
2023-03-31T22:44:48.113Z,99.90
2023-03-31T22:47:14.658Z,1.00
2023-03-31T22:49:41.216Z,1.00
2023-03-31T22:52:07.734Z,99.90
2023-03-31T22:54:34.313Z,99.90
2023-03-31T22:57:00.808Z,99.90
2023-03-31T22:59:27.388Z,99.90
2023-03-31T23:01:53.864Z,1.00
2023-03-31T23:04:20.829Z,1.00
2023-03-31T23:06:47.639Z,1.00
2023-03-31T23:09:14.192Z,99.90
2023-03-31T23:11:40.858Z,99.90
2023-03-31T23:14:07.376Z,99.90
2023-03-31T23:16:33.944Z,13.70
2023-03-31T23:19:01.190Z,70.00
2023-03-31T23:21:28.199Z,99.90
2023-03-31T23:23:56.413Z,99.90
2023-03-31T23:26:23.841Z,99.90
2023-03-31T23:28:50.909Z,1.00
2023-03-31T23:31:18.617Z,1.00
2023-03-31T23:33:45.767Z,1.00
2023-03-31T23:36:17.082Z,1.00
2023-03-31T23:38:47.645Z,1.00
2023-03-31T23:41:15.449Z,1.00
2023-03-31T23:43:42.046Z,1.00
2023-03-31T23:46:09.299Z,1.00
2023-03-31T23:48:36.515Z,1.00
2023-03-31T23:51:04.175Z,28.40
2023-03-31T23:53:30.797Z,1.00
2023-03-31T23:55:58.891Z,1.00
2023-03-31T23:58:26.153Z,1.00
